Time;durP1;ratioP1;P1;durP2;ratioP2;P2;SDS_P1;SDS_P2;PMS_P1;PMS_P2;Temp;Humidity;BMP_temperature;BMP_pressure;BME280_temperature;BME280_humidity;BME280_pressure;Samples;Min_cycle;Max_cycle;Signal;HPM_P1;HPM_P2
2022/05/27 00:01:49;;;;;;;4.82;2.90;;;;;;;9.69;77.20;94542.88;5070030;28;20062;-47
2022/05/27 00:04:16;;;;;;;4.30;2.90;;;;;;;9.75;76.53;94559.69;5070271;28;20048;-50
2022/05/27 00:06:43;;;;;;;7.97;2.97;;;;;;;9.75;77.14;94562.44;5069829;28;20048;-52
2022/05/27 00:09:10;;;;;;;6.60;2.90;;;;;;;9.76;76.80;94556.56;5070441;28;20101;-47
2022/05/27 00:11:37;;;;;;;4.40;2.65;;;;;;;9.64;76.92;94554.25;5068964;28;20386;-52
2022/05/27 00:14:03;;;;;;;4.10;2.40;;;;;;;9.65;76.60;94553.06;5070309;28;20048;-48
2022/05/27 00:16:30;;;;;;;5.30;3.10;;;;;;;9.52;76.88;94557.38;5069974;28;20466;-48
2022/05/27 00:18:58;;;;;;;5.15;3.20;;;;;;;9.48;77.24;94567.56;5069725;28;20036;-46
2022/05/27 00:21:26;;;;;;;4.07;2.97;;;;;;;9.50;77.22;94562.47;5069966;28;20392;-51
2022/05/27 00:23:53;;;;;;;5.10;2.92;;;;;;;9.44;77.20;94553.88;5068345;28;20048;-53
2022/05/27 00:26:20;;;;;;;5.68;3.00;;;;;;;9.25;77.94;94549.56;5090532;28;20055;-54
2022/05/27 00:28:47;;;;;;;125.40;72.65;;;;;;;9.27;77.24;94546.44;5089856;28;20048;-51
2022/05/27 00:31:18;;;;;;;13.52;7.38;;;;;;;9.33;77.67;94548.38;5090331;28;20105;-49
2022/05/27 00:33:44;;;;;;;6.93;4.30;;;;;;;9.40;77.00;94553.09;5089735;28;20036;-50
2022/05/27 00:36:12;;;;;;;5.47;3.17;;;;;;;9.35;77.73;94548.75;5090510;28;20043;-50
2022/05/27 00:38:40;;;;;;;4.22;2.78;;;;;;;9.34;77.30;94549.97;5089648;28;20040;-50
2022/05/27 00:41:08;;;;;;;5.07;3.00;;;;;;;9.27;78.17;94543.69;5090255;28;20066;-49
2022/05/27 00:43:35;;;;;;;4.20;3.00;;;;;;;9.25;77.80;94549.56;5089476;28;20052;-50
2022/05/27 00:46:26;;;;;;;4.67;2.80;;;;;;;9.28;78.08;94540.56;5089911;28;20070;-49
2022/05/27 00:48:58;;;;;;;4.25;3.00;;;;;;;9.29;78.19;94541.34;5089250;28;20093;-50
2022/05/27 00:51:30;;;;;;;5.15;2.80;;;;;;;9.31;78.12;94550.72;5089530;28;20094;-48
2022/05/27 00:54:04;;;;;;;5.18;2.75;;;;;;;9.34;77.83;94541.75;5081354;28;20044;-47
2022/05/27 00:56:34;;;;;;;5.68;3.00;;;;;;;9.15;78.20;94536.66;5089666;28;20412;-51
2022/05/27 00:59:06;;;;;;;4.83;3.10;;;;;;;8.92;77.87;94542.50;5089205;28;20922;-51
2022/05/27 01:01:33;;;;;;;4.00;2.80;;;;;;;8.88;78.40;94544.47;5089882;28;20053;-55
2022/05/27 01:04:01;;;;;;;6.15;3.05;;;;;;;8.95;78.16;94530.78;5089263;28;20872;-48
2022/05/27 01:06:28;;;;;;;46.45;26.65;;;;;;;8.98;78.29;94536.25;5089786;28;20052;-50
2022/05/27 01:08:55;;;;;;;13.02;5.90;;;;;;;9.01;78.32;94529.19;5089423;28;20434;-46
2022/05/27 01:11:42;;;;;;;4.93;3.60;;;;;;;8.92;78.83;94526.88;5090018;28;20056;-49
2022/05/27 01:14:36;;;;;;;4.70;3.22;;;;;;;8.97;78.03;94526.50;5089043;28;20055;-49
2022/05/27 01:17:15;;;;;;;5.05;3.10;;;;;;;8.94;77.89;94516.31;5088919;28;20328;-49
2022/05/27 01:23:06;;;;;;;4.80;2.90;;;;;;;8.94;78.60;94527.25;5088817;28;20040;-51
2022/05/27 01:25:59;;;;;;;6.10;3.13;;;;;;;8.98;78.55;94521.78;5061038;28;20051;-49
2022/05/27 01:28:44;;;;;;;5.25;3.13;;;;;;;8.91;78.45;94532.72;5047895;28;20048;-48
2022/05/27 01:31:32;;;;;;;5.57;3.60;;;;;;;8.71;78.91;94521.34;5064697;28;20400;-50
2022/05/27 01:34:05;;;;;;;5.00;3.33;;;;;;;8.64;78.92;94524.09;5068727;28;20782;-48
2022/05/27 01:36:36;;;;;;;6.95;3.30;;;;;;;8.61;78.48;94525.63;5053086;28;20045;-51
2022/05/27 01:39:18;;;;;;;5.97;3.70;;;;;;;8.53;78.95;94527.59;5072277;28;21560;-48
2022/05/27 01:42:05;;;;;;;57.13;31.83;;;;;;;8.57;79.37;94524.84;5072354;28;20048;-49
2022/05/27 01:44:59;;;;;;;29.70;16.88;;;;;;;8.60;79.25;94519.38;5072748;28;20048;-47
2022/05/27 01:48:01;;;;;;;9.80;5.55;;;;;;;8.65;78.80;94518.22;5044395;28;20813;-49
2022/05/27 01:50:34;;;;;;;5.57;3.80;;;;;;;8.63;78.60;94525.25;5052123;28;21741;-50
2022/05/27 01:53:36;;;;;;;6.57;3.67;;;;;;;8.65;78.66;94520.94;5065825;28;20717;-49
2022/05/27 01:56:09;;;;;;;4.30;3.10;;;;;;;8.64;78.65;94516.66;5061434;28;20611;-52
2022/05/27 01:58:47;;;;;;;5.75;3.40;;;;;;;8.56;78.15;94518.59;5072147;28;20040;-50
2022/05/27 02:01:20;;;;;;;7.03;3.80;;;;;;;8.46;78.91;94510.38;5072747;28;20048;-48
2022/05/27 02:03:52;;;;;;;6.00;3.80;;;;;;;8.44;79.54;94512.72;5071975;28;20462;-48
2022/05/27 02:06:28;;;;;;;5.13;3.70;;;;;;;8.45;79.33;94512.34;5072829;28;20058;-50
2022/05/27 02:09:04;;;;;;;5.53;3.35;;;;;;;8.45;79.20;94509.59;5072536;28;20477;-48
2022/05/27 02:11:32;;;;;;;5.00;3.38;;;;;;;8.45;78.88;94514.25;5072484;28;20166;-55
2022/05/27 02:14:24;;;;;;;4.93;3.13;;;;;;;8.41;78.90;94522.47;5070523;28;21826;-51
2022/05/27 02:17:03;;;;;;;4.72;3.05;;;;;;;8.39;78.91;94517.38;5068580;28;20045;-49
2022/05/27 02:19:36;;;;;;;5.30;3.27;;;;;;;8.42;78.93;94526.00;5072036;28;20091;-51
2022/05/27 02:22:09;;;;;;;5.50;3.10;;;;;;;8.38;79.15;94517.75;5078981;28;20045;-57
2022/05/27 02:24:44;;;;;;;4.57;3.00;;;;;;;8.39;79.38;94519.28;5071873;28;20052;-54
2022/05/27 02:28:04;;;;;;;5.15;3.17;;;;;;;8.34;79.47;94517.72;5072514;28;20044;-49
2022/05/27 02:30:35;;;;;;;4.95;3.28;;;;;;;8.33;79.27;94520.84;5053997;28;20439;-53
2022/05/27 02:35:56;;;;;;;5.15;3.10;;;;;;;8.18;79.09;94525.50;5070651;28;20048;-48
2022/05/27 02:38:23;;;;;;;5.35;3.33;;;;;;;8.19;79.13;94519.66;5072318;28;20101;-51
2022/05/27 02:40:56;;;;;;;6.70;3.22;;;;;;;8.19;78.98;94519.66;5071271;28;20059;-49
2022/05/27 02:43:48;;;;;;;5.25;3.30;;;;;;;8.22;78.80;94518.09;5070869;28;20045;-50
2022/05/27 02:46:35;;;;;;;5.73;3.30;;;;;;;8.17;79.21;94521.97;5071380;28;20056;-50
2022/05/27 02:49:04;;;;;;;4.70;3.03;;;;;;;8.20;79.39;94509.47;5070890;28;20743;-48
2022/05/27 02:51:47;;;;;;;5.30;3.60;;;;;;;8.13;79.90;94512.97;5071517;28;20055;-51
2022/05/27 02:54:59;;;;;;;5.32;3.35;;;;;;;8.09;79.93;94514.13;5083287;28;20048;-51
2022/05/27 02:57:47;;;;;;;6.00;3.80;;;;;;;8.11;80.25;94509.06;5028393;28;20584;-47
2022/05/27 03:00:24;;;;;;;5.53;3.90;;;;;;;8.13;80.98;94506.72;5091357;28;20048;-48
2022/05/27 03:02:52;;;;;;;8.68;4.32;;;;;;;7.85;82.33;94510.91;5079662;28;20048;-54
2022/05/27 03:05:24;;;;;;;5.43;3.85;;;;;;;7.60;82.88;94514.28;5072166;28;20047;-49
2022/05/27 03:08:22;;;;;;;6.88;3.80;;;;;;;7.84;81.75;94508.56;5070406;28;20049;-51
2022/05/27 03:11:13;;;;;;;6.15;4.15;;;;;;;7.93;81.12;94500.81;5071499;28;20049;-47
2022/05/27 03:13:58;;;;;;;5.80;3.90;;;;;;;7.94;81.41;94505.88;5070212;28;20047;-51
2022/05/27 03:16:39;;;;;;;7.03;4.57;;;;;;;7.97;80.92;94509.81;5071487;28;20060;-51
2022/05/27 03:19:31;;;;;;;6.15;3.88;;;;;;;8.00;80.84;94501.59;5077652;28;20052;-49
2022/05/27 03:22:23;;;;;;;6.30;4.15;;;;;;;8.05;80.60;94503.19;5087228;28;20077;-46
2022/05/27 03:24:56;;;;;;;6.50;4.20;;;;;;;7.71;81.65;94505.38;5070321;28;20067;-47
2022/05/27 03:27:39;;;;;;;6.27;4.07;;;;;;;7.70;81.82;94495.59;5071559;28;20477;-46
2022/05/27 03:30:13;;;;;;;7.10;4.13;;;;;;;7.76;81.25;94500.31;5070224;28;20067;-51
2022/05/27 03:32:46;;;;;;;6.55;4.07;;;;;;;7.84;81.88;94503.09;5070471;28;20047;-50
2022/05/27 03:35:19;;;;;;;5.72;3.75;;;;;;;7.89;81.08;94511.72;5070787;28;20193;-50
2022/05/27 03:37:55;;;;;;;5.82;4.20;;;;;;;7.84;81.05;94516.75;5070287;28;20117;-51
2022/05/27 03:40:36;;;;;;;7.00;4.13;;;;;;;7.50;82.67;94509.53;5071116;28;20049;-46
2022/05/27 03:43:03;;;;;;;6.40;4.57;;;;;;;7.36;83.46;94504.00;5069797;28;21830;-48
2022/05/27 03:45:30;;;;;;;6.43;4.30;;;;;;;7.33;83.33;94510.22;5070992;28;20060;-48
2022/05/27 03:47:57;;;;;;;7.13;4.40;;;;;;;7.49;82.33;94510.72;5070157;28;20044;-47
2022/05/27 03:50:26;;;;;;;5.53;3.90;;;;;;;7.64;82.20;94516.25;5070711;28;20048;-49
2022/05/27 03:52:54;;;;;;;7.50;4.07;;;;;;;7.82;81.63;94516.34;5070777;28;20114;-48
2022/05/27 03:55:25;;;;;;;6.10;4.30;;;;;;;7.88;81.21;94512.88;5090907;28;20066;-50
2022/05/27 03:57:53;;;;;;;6.97;4.10;;;;;;;8.02;81.33;94520.34;5089962;28;20424;-50
2022/05/27 04:00:20;;;;;;;7.43;4.13;;;;;;;8.03;81.70;94521.94;5090819;28;20051;-47
2022/05/27 04:02:47;;;;;;;6.65;3.92;;;;;;;7.74;82.12;94515.53;5089902;28;20096;-48
2022/05/27 04:05:17;;;;;;;6.47;3.97;;;;;;;7.77;82.18;94501.13;5090596;28;20420;-48
2022/05/27 04:07:47;;;;;;;7.53;3.90;;;;;;;7.76;81.54;94505.78;5089339;28;20048;-46
2022/05/27 04:10:15;;;;;;;7.00;3.90;;;;;;;7.93;81.87;94501.59;5090516;28;20417;-53
2022/05/27 04:12:42;;;;;;;6.60;4.13;;;;;;;8.08;81.98;94498.91;5090046;28;20052;-48
2022/05/27 04:15:15;;;;;;;6.50;4.20;;;;;;;8.09;82.44;94493.06;5090803;28;20074;-48
2022/05/27 04:17:42;;;;;;;6.50;4.33;;;;;;;8.30;80.93;94500.53;5089844;28;20503;-51
2022/05/27 04:20:13;;;;;;;8.73;4.20;;;;;;;8.47;81.78;94503.72;5090386;28;20070;-48
2022/05/27 04:22:40;;;;;;;6.88;4.03;;;;;;;8.50;80.58;94501.00;5089798;28;20040;-55
2022/05/27 04:25:12;;;;;;;6.57;4.43;;;;;;;7.89;81.62;94498.06;5082280;28;20040;-50
2022/05/27 04:27:39;;;;;;;6.13;4.18;;;;;;;7.98;81.44;94493.00;5089474;28;20409;-50
2022/05/27 04:30:07;;;;;;;6.90;4.60;;;;;;;8.09;81.78;94501.25;5090234;28;20408;-50
2022/05/27 04:32:34;;;;;;;6.00;4.22;;;;;;;8.28;81.12;94497.41;5090009;28;20078;-50
2022/05/27 04:35:00;;;;;;;6.03;4.20;;;;;;;8.46;80.14;94502.16;5090040;28;20048;-49
2022/05/27 04:37:27;;;;;;;5.28;3.85;;;;;;;8.59;80.74;94508.81;5090245;28;20043;-54
2022/05/27 04:39:54;;;;;;;6.47;4.03;;;;;;;8.73;79.83;94508.06;5089432;28;20047;-46
2022/05/27 04:42:21;;;;;;;5.27;3.87;;;;;;;8.62;80.15;94508.06;5090023;28;20048;-52
2022/05/27 04:44:47;;;;;;;6.13;3.80;;;;;;;8.60;80.61;94513.13;5089388;28;20450;-49
2022/05/27 04:47:14;;;;;;;6.82;4.13;;;;;;;8.53;80.79;94516.66;5090134;28;20056;-50
2022/05/27 04:49:54;;;;;;;6.30;4.25;;;;;;;8.39;81.84;94511.91;5089194;28;20046;-55
2022/05/27 04:52:26;;;;;;;7.88;5.25;;;;;;;8.53;81.59;94511.19;5089867;28;20047;-52
2022/05/27 04:54:54;;;;;;;7.47;4.47;;;;;;;8.58;81.84;94513.50;5069315;28;20040;-49
2022/05/27 04:57:25;;;;;;;7.90;4.38;;;;;;;8.92;80.44;94498.72;5069852;28;20058;-48
2022/05/27 04:59:52;;;;;;;7.15;4.15;;;;;;;9.07;79.40;94503.00;5073080;28;20041;-50
2022/05/27 05:02:21;;;;;;;6.13;4.20;;;;;;;9.13;79.29;94506.13;5092238;28;20041;-50
2022/05/27 05:04:48;;;;;;;7.93;4.40;;;;;;;9.10;79.22;94504.19;5089623;28;20113;-51
2022/05/27 05:07:19;;;;;;;6.03;4.37;;;;;;;8.72;80.98;94520.19;5074498;28;20048;-47
2022/05/27 05:09:46;;;;;;;6.53;4.38;;;;;;;8.83;80.88;94510.03;5073661;28;20040;-47
2022/05/27 05:12:13;;;;;;;6.78;4.50;;;;;;;9.10;79.88;94517.88;5074281;28;20044;-50
2022/05/27 05:14:41;;;;;;;6.45;4.20;;;;;;;9.34;79.50;94522.56;5073007;28;20394;-54
2022/05/27 05:17:08;;;;;;;7.97;4.20;;;;;;;10.00;77.89;94524.78;5073758;28;20044;-50
2022/05/27 05:19:35;;;;;;;6.00;4.47;;;;;;;10.34;75.55;94527.03;5072977;28;20048;-58
2022/05/27 05:22:02;;;;;;;6.28;4.30;;;;;;;10.69;74.87;94530.78;5071829;28;20045;-49
2022/05/27 05:24:29;;;;;;;5.60;4.30;;;;;;;11.47;71.96;94525.88;5073487;28;20390;-48
2022/05/27 05:26:56;;;;;;;5.25;3.83;;;;;;;13.89;65.29;94524.28;5073060;28;20040;-48
2022/05/27 05:29:22;;;;;;;6.30;3.53;;;;;;;17.40;53.78;94516.78;5073246;28;20044;-50
2022/05/27 05:31:49;;;;;;;7.37;3.30;;;;;;;18.41;51.18;94517.78;5072683;28;20079;-54
2022/05/27 05:34:16;;;;;;;4.90;3.20;;;;;;;18.36;51.40;94521.91;5073245;28;20037;-51
2022/05/27 05:36:43;;;;;;;4.22;3.00;;;;;;;17.41;52.34;94521.91;5071170;28;20044;-56
2022/05/27 05:39:09;;;;;;;4.38;3.03;;;;;;;16.63;54.39;94519.50;5073553;28;20404;-51
2022/05/27 05:41:39;;;;;;;5.20;2.80;;;;;;;15.72;56.69;94520.34;5072787;28;20093;-47
2022/05/27 05:44:08;;;;;;;4.20;2.77;;;;;;;15.51;58.06;94522.44;5073383;28;20036;-52
2022/05/27 05:46:37;;;;;;;3.80;2.67;;;;;;;14.81;59.71;94520.88;5072678;28;20051;-50
2022/05/27 05:49:07;;;;;;;3.92;2.88;;;;;;;14.12;63.07;94515.94;5073065;28;20047;-48
2022/05/27 05:51:34;;;;;;;4.30;3.00;;;;;;;13.94;64.40;94516.28;5072293;28;20046;-55
2022/05/27 05:54:01;;;;;;;4.82;3.00;;;;;;;14.31;63.74;94511.63;5082950;28;20054;-49
2022/05/27 05:56:33;;;;;;;5.07;3.10;;;;;;;14.76;62.55;94499.28;5093275;28;20089;-49
2022/05/27 05:59:01;;;;;;;4.38;3.10;;;;;;;15.36;60.86;94508.16;5092237;28;20404;-52
2022/05/27 06:01:28;;;;;;;4.78;3.00;;;;;;;18.14;52.71;94494.09;5093135;28;20056;-51
2022/05/27 06:03:55;;;;;;;4.30;2.75;;;;;;;21.25;45.22;94492.97;5092273;28;20051;-57
2022/05/27 06:06:23;;;;;;;4.43;2.70;;;;;;;23.49;40.11;94485.88;5093066;28;20096;-52
2022/05/27 06:08:49;;;;;;;4.60;2.40;;;;;;;23.84;40.02;94483.06;5091922;28;20087;-52
2022/05/27 06:11:16;;;;;;;4.82;3.00;;;;;;;24.75;36.29;94481.34;5091650;28;20056;-56
2022/05/27 06:13:43;;;;;;;4.30;2.15;;;;;;;25.07;36.32;94476.53;5092090;28;20517;-54
2022/05/27 06:16:10;;;;;;;3.47;2.20;;;;;;;24.56;37.05;94487.28;5092669;28;20092;-53
2022/05/27 06:18:37;;;;;;;3.33;2.03;;;;;;;24.92;36.67;94474.63;5092351;28;20048;-55
2022/05/27 06:21:04;;;;;;;3.83;2.10;;;;;;;26.07;34.37;94474.97;5092435;28;20040;-53
2022/05/27 06:23:31;;;;;;;3.72;2.00;;;;;;;26.44;33.50;94474.88;5092354;28;20040;-53
2022/05/27 06:26:03;;;;;;;4.43;2.00;;;;;;;25.60;34.59;94480.81;5082921;28;20638;-52
2022/05/27 06:36:48;;;;;;;3.92;1.70;;;;;;;31.21;26.65;94470.38;5051282;28;20052;-53
2022/05/27 06:39:15;;;;;;;3.30;1.77;;;;;;;28.71;29.44;94467.00;5052273;28;20509;-50
2022/05/27 06:41:42;;;;;;;3.25;1.63;;;;;;;28.96;29.02;94463.00;5051410;28;20047;-54
2022/05/27 06:44:09;;;;;;;3.03;1.85;;;;;;;29.67;28.36;94472.72;5051720;28;20045;-50
2022/05/27 06:46:36;;;;;;;3.60;1.70;;;;;;;29.97;27.72;94463.47;5051442;28;20042;-49
2022/05/27 06:49:06;;;;;;;3.35;1.60;;;;;;;30.19;26.71;94468.09;5051630;28;20049;-51
2022/05/27 06:51:36;;;;;;;3.00;1.40;;;;;;;27.94;30.23;94468.31;5051806;28;20052;-53
2022/05/27 06:54:05;;;;;;;2.90;1.70;;;;;;;28.90;28.66;94464.34;5065812;28;20054;-50
2022/05/27 06:56:37;;;;;;;3.33;1.52;;;;;;;28.79;28.74;94467.97;5072185;28;20511;-51
2022/05/27 06:59:05;;;;;;;4.40;1.90;;;;;;;28.03;29.84;94473.69;5070214;28;21496;-48
2022/05/27 07:01:33;;;;;;;4.68;1.88;;;;;;;24.20;36.24;94477.41;5071836;28;20159;-51
2022/05/27 07:04:00;;;;;;;2.97;1.60;;;;;;;27.21;31.55;94463.50;5070562;28;20858;-50
2022/05/27 07:06:33;;;;;;;3.35;1.80;;;;;;;24.97;34.83;94470.34;5071608;28;20055;-50
2022/05/27 07:09:03;;;;;;;2.58;1.50;;;;;;;27.25;31.11;94466.09;5070470;28;20791;-50
2022/05/27 07:11:30;;;;;;;3.37;2.00;;;;;;;25.83;33.20;94475.34;5071299;28;20409;-50
2022/05/27 07:13:56;;;;;;;3.55;1.60;;;;;;;27.28;31.26;94474.28;5070854;28;20040;-48
2022/05/27 07:16:23;;;;;;;4.35;1.70;;;;;;;23.01;38.19;94484.06;5071349;28;20066;-53
2022/05/27 07:18:50;;;;;;;3.25;1.65;;;;;;;26.39;32.95;94469.97;5070562;28;20045;-49
2022/05/27 07:21:16;;;;;;;3.28;1.67;;;;;;;27.75;30.75;94470.13;5070705;28;20058;-49
2022/05/27 07:23:45;;;;;;;2.70;1.53;;;;;;;28.38;29.59;94471.50;5067861;28;20040;-56
2022/05/27 07:26:12;;;;;;;3.72;1.70;;;;;;;29.22;27.76;94470.31;5091379;28;20408;-55
2022/05/27 07:28:39;;;;;;;2.78;1.50;;;;;;;30.56;26.10;94470.22;5090963;28;20062;-49
2022/05/27 07:31:05;;;;;;;3.30;1.70;;;;;;;28.95;28.33;94464.28;5091051;28;20052;-54
2022/05/27 07:33:37;;;;;;;3.75;1.60;;;;;;;29.37;27.99;94450.88;5089605;28;20040;-47
2022/05/27 07:36:04;;;;;;;3.70;1.57;;;;;;;30.76;25.85;94451.94;5091063;28;20040;-51
2022/05/27 07:38:31;;;;;;;3.05;1.50;;;;;;;29.90;26.95;94449.88;5090336;28;20036;-51
2022/05/27 07:40:58;;;;;;;2.70;1.30;;;;;;;31.58;25.13;94452.53;5090348;28;20036;-51
2022/05/27 07:43:25;;;;;;;3.13;1.60;;;;;;;30.83;25.69;94444.91;5091095;28;20488;-55
2022/05/27 07:45:52;;;;;;;3.40;1.45;;;;;;;30.88;25.33;94448.94;5090324;28;20043;-54
2022/05/27 07:48:19;;;;;;;2.33;1.33;;;;;;;30.72;25.92;94445.81;5091142;28;20423;-54
2022/05/27 07:50:45;;;;;;;2.58;1.60;;;;;;;30.58;26.56;94450.63;5090092;28;20048;-52
2022/05/27 07:53:12;;;;;;;3.05;1.30;;;;;;;32.34;24.37;94445.72;5085004;28;20045;-54
2022/05/27 07:55:39;;;;;;;2.95;1.50;;;;;;;32.43;22.94;94459.47;5087567;28;20058;-53
2022/05/27 07:58:06;;;;;;;3.33;1.70;;;;;;;33.71;22.14;94459.22;5090692;28;20051;-56
2022/05/27 08:00:35;;;;;;;3.30;1.30;;;;;;;31.96;24.32;94460.88;5090574;28;20044;-53
2022/05/27 08:03:09;;;;;;;3.17;1.40;;;;;;;29.41;28.10;94462.66;5089580;28;20757;-50
2022/05/27 08:05:36;;;;;;;6.45;1.58;;;;;;;27.93;30.21;94458.34;5090195;28;20056;-50
2022/05/27 08:08:03;;;;;;;2.50;1.50;;;;;;;26.08;32.73;94468.84;5090404;28;20048;-51
2022/05/27 08:10:33;;;;;;;3.45;1.67;;;;;;;24.96;34.55;94470.84;5090765;28;20420;-55
2022/05/27 08:13:00;;;;;;;3.87;1.80;;;;;;;24.75;35.40;94470.91;5089285;28;20396;-51
2022/05/27 08:15:27;;;;;;;3.53;1.80;;;;;;;24.43;36.39;94459.59;5090280;28;20048;-53
2022/05/27 08:17:55;;;;;;;3.85;2.10;;;;;;;26.51;33.10;94460.28;5089660;28;20044;-54
2022/05/27 08:20:28;;;;;;;4.80;1.70;;;;;;;24.08;36.23;94451.28;5089021;28;20044;-50
2022/05/27 08:22:57;;;;;;;3.28;1.80;;;;;;;25.89;34.45;94454.41;5089455;28;20400;-51
2022/05/27 08:25:25;;;;;;;7.30;1.87;;;;;;;26.88;33.27;94458.59;5070508;28;20041;-51
2022/05/27 08:27:51;;;;;;;2.90;1.60;;;;;;;29.84;28.17;94447.91;5069269;28;20075;-52
2022/05/27 08:30:22;;;;;;;4.43;1.60;;;;;;;30.55;26.98;94448.13;5070028;28;20404;-50
2022/05/27 08:32:53;;;;;;;3.55;1.40;;;;;;;29.57;27.62;94444.03;5068663;28;20040;-55
2022/05/27 08:38:07;;;;;;;4.70;1.57;;;;;;;34.23;21.90;94426.00;5068775;28;20894;-49
2022/05/27 08:40:52;;;;;;;2.88;1.20;;;;;;;29.95;26.59;94432.09;5069552;28;20051;-51
2022/05/27 08:43:37;;;;;;;3.50;1.27;;;;;;;31.18;25.36;94441.03;5069671;28;20049;-52
2022/05/27 08:46:21;;;;;;;2.95;1.30;;;;;;;28.05;29.22;94425.19;5067493;28;20045;-56
2022/05/27 08:48:53;;;;;;;4.40;1.40;;;;;;;28.12;29.72;94433.13;5069422;28;20060;-54
2022/05/27 08:51:53;;;;;;;2.80;1.30;;;;;;;28.50;29.26;94422.19;5069165;28;20053;-57
2022/05/27 08:54:24;;;;;;;4.50;1.60;;;;;;;30.33;26.77;94429.38;5078501;28;20047;-50
2022/05/27 08:59:52;;;;;;;3.10;1.20;;;;;;;31.42;25.33;94428.78;5089682;28;20062;-52
2022/05/27 09:02:25;;;;;;;3.15;1.20;;;;;;;32.04;24.03;94424.13;5090044;28;20055;-57
2022/05/27 09:05:16;;;;;;;2.20;1.10;;;;;;;33.07;23.32;94429.91;5089395;28;20399;-61
2022/05/27 09:07:55;;;;;;;2.50;1.30;;;;;;;31.43;24.28;94436.00;5089426;28;20062;-50
2022/05/27 09:10:31;;;;;;;4.15;1.10;;;;;;;32.37;23.33;94427.56;5089745;28;20048;-54
2022/05/27 09:13:07;;;;;;;3.42;1.40;;;;;;;32.13;23.69;94426.50;5088300;28;20040;-57
2022/05/27 09:15:53;;;;;;;2.97;1.20;;;;;;;33.80;21.83;94422.44;5089635;28;20050;-56
2022/05/27 09:18:26;;;;;;;3.13;1.20;;;;;;;34.09;21.67;94407.44;5089500;28;20047;-57
2022/05/27 09:21:25;;;;;;;2.72;1.15;;;;;;;34.72;22.00;94412.94;5088842;28;20052;-53
2022/05/27 09:24:06;;;;;;;2.65;1.10;;;;;;;32.97;23.05;94409.72;5082447;28;20036;-52
2022/05/27 09:26:44;;;;;;;2.28;1.20;;;;;;;32.22;23.59;94409.03;5069163;28;20455;-48
2022/05/27 09:29:19;;;;;;;3.25;1.30;;;;;;;32.59;23.12;94400.78;5069200;28;20052;-59
2022/05/27 09:31:51;;;;;;;5.90;1.30;;;;;;;33.92;21.91;94408.66;5068945;28;20047;-49
2022/05/27 09:34:23;;;;;;;4.05;1.35;;;;;;;33.50;22.48;94414.41;5069280;28;20049;-52
2022/05/27 09:36:53;;;;;;;2.60;1.30;;;;;;;33.22;22.63;94415.91;5069030;28;20041;-56
2022/05/27 09:39:22;;;;;;;2.75;1.20;;;;;;;32.89;23.81;94413.81;5069094;28;20060;-52
2022/05/27 09:42:03;;;;;;;2.53;1.10;;;;;;;32.42;23.35;94407.56;5084437;28;20486;-52
2022/05/27 09:44:55;;;;;;;2.90;1.40;;;;;;;30.33;26.12;94415.22;5070541;28;20049;-52
2022/05/27 09:47:28;;;;;;;4.47;1.42;;;;;;;30.46;26.01;94413.22;5072281;28;20127;-52
2022/05/27 09:50:00;;;;;;;3.05;1.17;;;;;;;28.51;28.83;94406.78;5071297;28;20047;-63
2022/05/27 09:52:30;;;;;;;2.88;1.42;;;;;;;27.54;30.43;94413.28;5073948;28;20051;-51
2022/05/27 09:55:00;;;;;;;2.40;1.20;;;;;;;27.68;30.43;94412.22;5084046;28;20046;-51
2022/05/27 09:57:32;;;;;;;4.37;1.63;;;;;;;28.44;29.14;94410.16;5092841;28;20046;-50
2022/05/27 10:00:03;;;;;;;3.45;1.70;;;;;;;28.31;28.95;94412.78;5092292;28;20032;-49
2022/05/27 10:02:36;;;;;;;4.18;1.40;;;;;;;28.85;28.53;94417.88;5092848;28;20462;-51
2022/05/27 10:05:22;;;;;;;3.60;1.50;;;;;;;29.37;28.31;94410.53;5091720;28;20265;-55
2022/05/27 10:07:53;;;;;;;2.50;1.20;;;;;;;29.24;28.73;94411.94;5092504;28;20044;-48
2022/05/27 10:10:36;;;;;;;2.77;1.43;;;;;;;30.44;26.70;94409.38;5091318;28;20044;-54
2022/05/27 10:13:24;;;;;;;2.65;1.48;;;;;;;30.83;25.83;94408.81;5091692;28;20435;-47
2022/05/27 10:15:50;;;;;;;2.83;1.40;;;;;;;31.49;25.38;94409.63;5092481;28;20051;-49
2022/05/27 10:18:26;;;;;;;3.92;1.60;;;;;;;29.32;27.66;94406.47;5092369;28;20059;-50
2022/05/27 10:21:04;;;;;;;3.38;1.38;;;;;;;26.98;31.63;94426.09;5091748;28;20099;-56
2022/05/27 10:23:35;;;;;;;2.80;1.30;;;;;;;26.70;31.40;94417.63;5088666;28;20382;-52
2022/05/27 10:26:33;;;;;;;3.83;1.58;;;;;;;27.31;30.74;94421.78;5071144;28;21475;-48
2022/05/27 10:29:07;;;;;;;2.60;1.23;;;;;;;26.78;31.41;94418.66;5070881;28;20580;-50
2022/05/27 10:31:35;;;;;;;3.38;1.42;;;;;;;27.08;31.08;94416.13;5071755;28;20045;-50
2022/05/27 10:34:03;;;;;;;3.38;1.50;;;;;;;28.08;29.18;94430.56;5071987;28;20075;-54
2022/05/27 10:36:50;;;;;;;2.30;1.10;;;;;;;28.47;28.83;94420.38;5072132;28;20141;-53
2022/05/27 10:39:28;;;;;;;2.53;1.30;;;;;;;28.38;28.17;94415.06;5070901;28;21725;-57
2022/05/27 10:42:07;;;;;;;2.60;1.27;;;;;;;27.65;29.54;94419.66;5071584;28;20044;-54
2022/05/27 10:44:52;;;;;;;3.08;1.20;;;;;;;27.24;30.01;94422.28;5071320;28;20059;-56
2022/05/27 10:47:57;;;;;;;3.03;1.20;;;;;;;26.41;31.34;94421.66;5071958;28;20056;-54
2022/05/27 10:50:31;;;;;;;2.30;1.20;;;;;;;26.49;31.77;94417.81;5055899;28;20752;-52
2022/05/27 10:53:00;;;;;;;3.72;1.20;;;;;;;26.37;31.09;94412.69;5073284;28;20485;-50
2022/05/27 10:56:02;;;;;;;2.70;1.10;;;;;;;26.74;31.01;94406.88;5069942;28;20045;-49
2022/05/27 11:02:25;;;;;;;2.78;1.33;;;;;;;24.23;33.98;94407.09;5070269;28;20113;-53
2022/05/27 11:05:14;;;;;;;2.50;1.20;;;;;;;24.30;34.10;94408.69;5069612;28;20049;-49
2022/05/27 11:08:24;;;;;;;2.50;1.40;;;;;;;23.49;34.75;94404.63;5071110;28;20049;-54
2022/05/27 11:11:49;;;;;;;3.25;1.50;;;;;;;23.49;34.95;94394.19;5070960;28;20044;-51
2022/05/27 11:17:36;;;;;;;3.22;1.40;;;;;;;23.33;34.74;94384.31;5070036;28;20798;-46
2022/05/27 11:20:33;;;;;;;2.97;1.40;;;;;;;23.72;34.63;94391.69;5070156;28;20067;-50
2022/05/27 11:23:39;;;;;;;4.38;1.65;;;;;;;22.98;35.41;94392.69;5082381;28;20719;-56
2022/05/27 11:26:58;;;;;;;3.90;1.60;;;;;;;22.61;36.81;94378.34;5050074;28;21088;-52
2022/05/27 11:29:58;;;;;;;3.10;1.70;;;;;;;22.81;35.73;94372.81;4998220;28;20416;-54
2022/05/27 11:32:35;;;;;;;3.83;1.80;;;;;;;22.80;36.35;94371.28;5061185;28;20056;-55
2022/05/27 11:35:13;;;;;;;3.97;1.80;;;;;;;23.13;36.06;94362.63;5058123;28;20086;-55
2022/05/27 11:37:42;;;;;;;3.65;1.60;;;;;;;23.46;35.87;94369.19;5067769;28;20063;-52
2022/05/27 11:40:33;;;;;;;3.17;1.70;;;;;;;23.29;35.36;94368.97;5070410;28;20413;-50
2022/05/27 11:43:24;;;;;;;3.92;1.70;;;;;;;23.08;35.42;94356.94;5049757;28;20538;-55
2022/05/27 11:46:13;;;;;;;3.25;1.80;;;;;;;22.91;36.96;94360.25;5050120;28;20513;-49
2022/05/27 11:49:01;;;;;;;3.03;1.70;;;;;;;22.52;35.63;94354.81;5049976;28;20553;-47
2022/05/27 11:51:40;;;;;;;2.75;1.60;;;;;;;22.46;35.55;94361.59;5050453;28;20052;-47
2022/05/27 11:54:30;;;;;;;2.50;1.45;;;;;;;22.75;34.54;94357.97;5060710;28;21109;-50
2022/05/27 11:57:01;;;;;;;3.05;1.58;;;;;;;22.79;35.52;94360.56;5069779;28;20041;-54
2022/05/27 11:59:35;;;;;;;3.97;1.67;;;;;;;22.64;36.36;94358.56;5070403;28;20048;-47
2022/05/27 12:02:37;;;;;;;3.33;1.90;;;;;;;22.59;36.16;94353.66;5062492;28;20769;-46
2022/05/27 12:05:40;;;;;;;3.83;1.70;;;;;;;22.43;36.03;94363.28;5076507;28;20040;-64
2022/05/27 12:08:33;;;;;;;2.95;1.63;;;;;;;22.83;36.77;94361.91;5042735;28;20738;-51
2022/05/27 12:11:21;;;;;;;3.35;1.60;;;;;;;22.97;35.50;94359.56;5069195;28;20666;-51
2022/05/27 12:14:29;;;;;;;3.85;1.73;;;;;;;23.06;35.75;94356.66;5069809;28;20052;-51
2022/05/27 12:16:59;;;;;;;3.37;1.60;;;;;;;23.40;35.54;94345.94;5069920;28;20033;-50
2022/05/27 12:19:32;;;;;;;4.45;1.70;;;;;;;22.59;38.62;94347.28;5070057;28;20047;-52
2022/05/27 12:22:08;;;;;;;3.85;1.40;;;;;;;23.47;36.15;94331.53;5069337;28;20581;-54
2022/05/27 12:24:41;;;;;;;3.47;1.70;;;;;;;23.25;35.48;94340.41;5082314;28;20074;-55
2022/05/27 12:27:10;;;;;;;3.05;1.60;;;;;;;23.61;34.68;94341.13;5088671;28;20514;-49
2022/05/27 12:29:40;;;;;;;4.00;1.70;;;;;;;23.39;35.63;94336.78;5089714;28;20044;-48
2022/05/27 12:32:08;;;;;;;5.25;2.65;;;;;;;23.68;35.76;94327.47;5089794;28;20066;-48
2022/05/27 12:34:38;;;;;;;6.60;2.00;;;;;;;23.42;36.15;94321.81;5089825;28;20115;-47
2022/05/27 12:37:26;;;;;;;3.38;1.60;;;;;;;24.15;35.20;94323.88;5071916;28;20043;-47
2022/05/27 12:40:14;;;;;;;4.28;1.95;;;;;;;23.37;35.39;94324.53;5089234;28;20055;-49